Akogare — JPDL — position and weather

sailwx.info

Track history (hours):
 
Tides and Currents Weather Stations Pressure Air Temp Water Temp Dewpoint Dewpoint Depression Visibility Wind Speed Wind Dir Waves Ship Positions

Akogare (Japan)

Ship's website: http://www.akogare.or.jp/eng/top.html

Last reported at 2017-Oct-30 05:57 UTC. Time now 2017-Nov-18 19:54 UTC.
Position N 34°37' E 134°57'.
Warning: this ship's position is 19 days out of date.

Length 52 m; draft 4.5 m.

Type: Sailing vessel. MMSI: 431005001.

Date/timePositionNaut miles runAvg speedWind from/ knotsBaromVisibWave heightAir tempDewpointWater temp
2017-Oct-30 05:57N 34°37' E 134°57'3 5.3
2017-Oct-30 05:26N 34°38' E 135°00'2 4.3
2017-Oct-30 05:00N 34°37' E 135°02'2 3.4
2017-Oct-30 04:30N 34°36' E 135°04'1 2.5
2017-Oct-30 04:00N 34°36' E 135°05'2 4.1
2017-Oct-30 03:30N 34°36' E 135°08'2 3.7
2017-Oct-30 03:00N 34°36' E 135°10'2 4.7
2017-Oct-30 02:30N 34°36' E 135°13'3 5.6
2017-Oct-30 02:00N 34°36' E 135°16'3 5.6
2017-Oct-30 01:30N 34°37' E 135°20'3 6.6
2017-Oct-30 01:00N 34°38' E 135°23'2 2.1
2017-Oct-29 23:54N 34°39' E 135°26'0 0.0
2017-Oct-29 23:30N 34°39' E 135°26'0 0.0
2017-Oct-29 22:54N 34°39' E 135°26'0 0.0
2017-Oct-29 22:30N 34°39' E 135°26'0 0.0
2017-Oct-29 22:00N 34°39' E 135°26'0 0.0
2017-Oct-29 20:48N 34°39' E 135°26'0 0.0
2017-Oct-29 20:30N 34°39' E 135°26'0 0.0
2017-Oct-29 20:00N 34°39' E 135°26'0 0.0
2017-Oct-29 19:30N 34°39' E 135°26'0 0.0
2017-Oct-29 18:48N 34°39' E 135°26'0 0.0
2017-Oct-29 18:24N 34°39' E 135°26'0 0.0
2017-Oct-29 18:00N 34°39' E 135°26'0 0.0
2017-Oct-29 17:30N 34°39' E 135°26'0 0.0
2017-Oct-29 17:00N 34°39' E 135°26'0 0.0
2017-Oct-29 16:30N 34°39' E 135°26'0 0.0
2017-Oct-29 16:00N 34°39' E 135°26'0 0.0
2017-Oct-29 15:18N 34°39' E 135°26'0 0.0
2017-Oct-29 15:00N 34°39' E 135°26'0 0.0
2017-Oct-29 14:30N 34°39' E 135°26'0 0.0
2017-Oct-29 13:54N 34°39' E 135°26'0 0.0
2017-Oct-29 13:30N 34°39' E 135°26'0 0.0
2017-Oct-29 13:00N 34°39' E 135°26'0 0.0
2017-Oct-29 12:12N 34°39' E 135°26'0 0.0
2017-Oct-29 11:48N 34°39' E 135°26'0 0.0
2017-Oct-29 11:30N 34°39' E 135°26'0 0.0
2017-Oct-29 11:00N 34°39' E 135°26'0 0.0
2017-Oct-29 10:24N 34°39' E 135°26'0 0.0
2017-Oct-29 10:00N 34°39' E 135°26'0 0.0
2017-Oct-29 09:18N 34°39' E 135°26'0 0.0
2017-Oct-29 08:36N 34°39' E 135°26'0 0.0
2017-Oct-29 08:30N 34°39' E 135°26'0 0.0
2017-Oct-29 08:00N 34°39' E 135°26'0 0.0
2017-Oct-29 07:30N 34°39' E 135°26'0 0.0
2017-Oct-29 07:00N 34°39' E 135°26'0 0.0
2017-Oct-29 06:30N 34°39' E 135°26'0 0.0
2017-Oct-29 06:00N 34°39' E 135°26'0 0.0
2017-Oct-29 05:30N 34°39' E 135°26'0 0.0
2017-Oct-29 05:00N 34°39' E 135°26'0 0.0
2017-Oct-29 04:24N 34°39' E 135°26'0 0.0
2017-Oct-28 19:00N 34°39' E 135°26'0 0.0
2017-Oct-28 18:24N 34°39' E 135°26'0 0.0
2017-Oct-28 18:00N 34°39' E 135°26'0 0.0
2017-Oct-28 17:30N 34°39' E 135°26'0 0.0
2017-Oct-28 17:00N 34°39' E 135°26'0 0.0
2017-Oct-28 16:30N 34°39' E 135°26'0 0.0
2017-Oct-28 16:00N 34°39' E 135°26'0 0.0
2017-Oct-28 15:30N 34°39' E 135°26'0 0.0
2017-Oct-28 15:00N 34°39' E 135°26'0 0.0
2017-Oct-28 14:30N 34°39' E 135°26'0 0.0
2017-Oct-28 14:00N 34°39' E 135°26'0 0.0
2017-Oct-28 13:24N 34°39' E 135°26'0 0.0
2017-Oct-28 13:00N 34°39' E 135°26'0 0.0
2017-Oct-28 12:30N 34°39' E 135°26'0 0.0
2017-Oct-28 12:00N 34°39' E 135°26'0 0.0
2017-Oct-28 11:00N 34°39' E 135°26'0 0.0
2017-Oct-28 10:30N 34°39' E 135°26'0 0.0
2017-Oct-28 10:00N 34°39' E 135°26'0 0.0
2017-Oct-28 09:30N 34°39' E 135°26'0 0.0
2017-Oct-28 09:00N 34°39' E 135°26'0 0.0
2017-Oct-28 08:30N 34°39' E 135°26'0 0.0
2017-Oct-28 07:48N 34°39' E 135°26'0 0.0
2017-Oct-28 07:18N 34°39' E 135°26'0 0.0
2017-Oct-28 06:54N 34°39' E 135°26'0 0.0
2017-Oct-28 06:18N 34°39' E 135°26'0 0.0
2017-Oct-28 05:54N 34°39' E 135°26'0 0.0
2017-Oct-28 05:30N 34°39' E 135°26'0 0.0
2017-Oct-28 04:18N 34°39' E 135°26'0 0.0
2017-Oct-28 03:54N 34°39' E 135°26'0 0.0
2017-Oct-28 03:18N 34°39' E 135°26'0 0.0
2017-Oct-28 02:42N 34°39' E 135°26'0 0.0
2017-Oct-28 01:18N 34°39' E 135°26'0 0.0
2017-Oct-28 00:59N 34°39' E 135°26'1 2.1
2017-Oct-28 00:30N 34°39' E 135°27'1 2.2
2017-Oct-28 00:00N 34°40' E 135°26'0 0.2
2017-Oct-27 22:42N 34°39' E 135°26'0 0.0
2017-Oct-27 22:30N 34°39' E 135°26'0 0.0
2017-Oct-27 22:00N 34°39' E 135°26'0 0.0
2017-Oct-27 21:30N 34°39' E 135°26'0 0.0
2017-Oct-27 21:00N 34°39' E 135°26'0 0.0
2017-Oct-27 20:24N 34°39' E 135°26'0 0.0
2017-Oct-27 19:54N 34°39' E 135°26'0 0.0
2017-Oct-27 19:30N 34°39' E 135°26'0 0.0
2017-Oct-27 19:00N 34°39' E 135°26'0 0.0
2017-Oct-27 18:30N 34°39' E 135°26'0 0.0
2017-Oct-27 18:00N 34°39' E 135°26'0 0.0
2017-Oct-27 17:30N 34°39' E 135°26'0 0.0
2017-Oct-27 17:00N 34°39' E 135°26'0 0.0
2017-Oct-27 16:24N 34°39' E 135°26'0 0.0
2017-Oct-27 14:54N 34°39' E 135°26'0 0.0
2017-Oct-27 14:30N 34°39' E 135°26'0 0.0
2017-Oct-27 13:54N 34°39' E 135°26'0 0.0
2017-Oct-27 13:12N 34°39' E 135°26'0 0.0
2017-Oct-27 13:00N 34°39' E 135°26'0 0.0
2017-Oct-27 12:30N 34°39' E 135°26'0 0.0
2017-Oct-27 11:58N 34°39' E 135°26'1 2.1
2017-Oct-27 11:31N 34°39' E 135°27'1 1.5
2017-Oct-27 11:01N 34°39' E 135°26'1 1.6
2017-Oct-27 10:30N 34°40' E 135°26'0 0.3
2017-Oct-27 09:48N 34°39' E 135°26'0 0.0
2017-Oct-27 09:18N 34°39' E 135°26'0 0.0
2017-Oct-27 08:54N 34°39' E 135°26'0 0.0
2017-Oct-27 08:30N 34°39' E 135°26'0 0.0
2017-Oct-27 07:54N 34°39' E 135°26'0 0.0
2017-Oct-27 07:30N 34°39' E 135°26'0 0.0
2017-Oct-27 07:00N 34°39' E 135°26'0 0.0
2017-Oct-27 06:30N 34°39' E 135°26'1 1.1
2017-Oct-27 06:00N 34°39' E 135°26'1 1.4
2017-Oct-27 05:30N 34°39' E 135°26'0 0.2
2017-Oct-27 04:48N 34°39' E 135°26'0 0.0
2017-Oct-27 04:24N 34°39' E 135°26'0 0.0
2017-Oct-27 03:54N 34°39' E 135°26'0 0.0
2017-Oct-27 03:30N 34°39' E 135°26'0 0.0
2017-Oct-27 03:00N 34°39' E 135°26'0 0.0
2017-Oct-27 02:30N 34°39' E 135°26'0 0.0
2017-Oct-27 01:54N 34°39' E 135°26'0 0.0
2017-Oct-27 00:12N 34°39' E 135°26'0 0.0
2017-Oct-26 23:48N 34°39' E 135°26'0 0.0
2017-Oct-26 23:30N 34°39' E 135°26'0 0.0
2017-Oct-26 22:54N 34°39' E 135°26'0 0.0
2017-Oct-26 22:30N 34°39' E 135°26'0 0.0
2017-Oct-26 21:54N 34°39' E 135°26'0 0.0
2017-Oct-26 21:30N 34°39' E 135°26'0 0.0
2017-Oct-26 20:54N 34°39' E 135°26'0 0.0
2017-Oct-26 20:30N 34°39' E 135°26'0 0.0
2017-Oct-26 20:00N 34°39' E 135°26'0 0.0
2017-Oct-26 19:30N 34°39' E 135°26'0 0.0
2017-Oct-26 18:54N 34°39' E 135°26'0 0.0
2017-Oct-26 18:30N 34°39' E 135°26'0 0.0
2017-Oct-26 18:00N 34°39' E 135°26'0 0.0
2017-Oct-26 17:30N 34°39' E 135°26'0 0.0
2017-Oct-26 17:00N 34°39' E 135°26'0 0.0
2017-Oct-26 16:30N 34°39' E 135°26'0 0.0
2017-Oct-26 16:00N 34°39' E 135°26'0 0.0
2017-Oct-26 15:30N 34°39' E 135°26'0 0.0
2017-Oct-26 15:00N 34°39' E 135°26'0 0.0
2017-Oct-26 14:30N 34°39' E 135°26'0 0.0
2017-Oct-26 14:00N 34°39' E 135°26'0 0.0
2017-Oct-26 13:30N 34°39' E 135°26'0 0.0
2017-Oct-26 12:30N 34°39' E 135°26'0 0.0
2017-Oct-26 12:00N 34°39' E 135°26'0 0.0
2017-Oct-26 11:24N 34°39' E 135°26'0 0.0
2017-Oct-26 11:00N 34°39' E 135°26'0 0.0
2017-Oct-26 10:30N 34°39' E 135°26'0 0.0
2017-Oct-26 10:00N 34°39' E 135°26'0 0.0
2017-Oct-26 09:30N 34°39' E 135°26'0 0.0
2017-Oct-26 09:00N 34°39' E 135°26'0 0.0
2017-Oct-26 08:30N 34°39' E 135°26'0 0.0
2017-Oct-26 08:00N 34°39' E 135°26'0 0.0
2017-Oct-26 07:30N 34°39' E 135°26'0 0.0
2017-Oct-26 06:54N 34°39' E 135°26'0 0.0
2017-Oct-26 06:24N 34°39' E 135°26'0 0.0
2017-Oct-26 06:00N 34°39' E 135°26'0 0.0
2017-Oct-26 05:24N 34°39' E 135°26'0 0.0
2017-Oct-26 05:00N 34°39' E 135°26'0 0.0
2017-Oct-26 04:30N 34°39' E 135°26'0 0.0
2017-Oct-26 03:36N 34°39' E 135°26'0 0.0
2017-Oct-26 03:27N 34°39' E 135°26'1 2.5
2017-Oct-26 03:00N 34°39' E 135°25'2 4.0
2017-Oct-26 02:30N 34°37' E 135°23'3 5.1
2017-Oct-26 01:59N 34°35' E 135°21'1 1.8
2017-Oct-26 01:30N 34°35' E 135°20'1 1.9
2017-Oct-26 01:00N 34°36' E 135°21'3 6.3
2017-Oct-26 00:30N 34°38' E 135°23'3 5.2
2017-Oct-26 00:00N 34°39' E 135°26'0 0.2
2017-Oct-25 23:26N 34°39' E 135°26'0 0.0
2017-Oct-25 21:50N 34°39' E 135°26'0 0.0
2017-Oct-25 21:08N 34°39' E 135°26'0 0.0
2017-Oct-25 19:44N 34°39' E 135°26'0 0.0
2017-Oct-25 19:26N 34°39' E 135°26'0 0.0
2017-Oct-25 18:50N 34°39' E 135°26'0 0.0
2017-Oct-25 18:14N 34°39' E 135°26'0 0.0
2017-Oct-25 17:56N 34°39' E 135°26'0 0.0
2017-Oct-25 17:26N 34°39' E 135°26'0 0.0
2017-Oct-25 16:56N 34°39' E 135°26'0 0.0
2017-Oct-25 16:26N 34°39' E 135°26'0 0.0
2017-Oct-25 15:56N 34°39' E 135°26'0 0.0
2017-Oct-25 15:26N 34°39' E 135°26'0 0.0
2017-Oct-25 14:56N 34°39' E 135°26'0 0.0
2017-Oct-25 14:26N 34°39' E 135°26'0 0.0
2017-Oct-25 13:56N 34°39' E 135°26'0 0.0
2017-Oct-25 13:26N 34°39' E 135°26'0 0.0
2017-Oct-25 12:56N 34°39' E 135°26'0 0.0
2017-Oct-25 12:14N 34°39' E 135°26'0 0.0
2017-Oct-25 11:56N 34°39' E 135°26'0 0.0
2017-Oct-25 11:26N 34°39' E 135°26'0 0.0
2017-Oct-25 10:32N 34°39' E 135°26'0 0.0
2017-Oct-25 10:26N 34°39' E 135°26'0 0.0
2017-Oct-25 09:44N 34°39' E 135°26'0 0.0
2017-Oct-25 05:26N 34°39' E 135°26'0 1.0
2017-Oct-25 05:00N 34°39' E 135°25'2 4.5
2017-Oct-25 04:29N 34°38' E 135°23'3 5.2
2017-Oct-25 04:00N 34°38' E 135°20'2 4.7
2017-Oct-25 03:30N 34°37' E 135°17'3 5.7
2017-Oct-25 03:00N 34°37' E 135°13'2 4.6
2017-Oct-25 02:30N 34°39' E 135°11'1 1.7
2017-Oct-25 01:52N 34°40' E 135°12'0 0.0
2017-Oct-25 01:28N 34°40' E 135°12'0 0.1
2017-Oct-25 00:58N 34°40' E 135°12'0 0.0
2017-Oct-25 00:28N 34°40' E 135°12'0 0.0
2017-Oct-24 23:52N 34°40' E 135°12'0 0.1
2017-Oct-24 23:22N 34°40' E 135°12'0 0.0
2017-Oct-24 22:58N 34°40' E 135°12'0 0.1
2017-Oct-24 22:28N 34°40' E 135°12'0 0.0
2017-Oct-24 21:58N 34°40' E 135°12'0 0.1
2017-Oct-24 21:28N 34°40' E 135°12'0 0.1
2017-Oct-24 20:52N 34°40' E 135°12'0 0.1
2017-Oct-24 20:22N 34°40' E 135°12'0 0.0
2017-Oct-24 19:52N 34°40' E 135°12'0 0.1
2017-Oct-24 19:28N 34°40' E 135°12'0 0.0
2017-Oct-24 18:52N 34°40' E 135°12'0 0.0
2017-Oct-24 18:28N 34°40' E 135°12'0 0.0
2017-Oct-24 17:58N 34°40' E 135°12'0 0.0
2017-Oct-24 17:28N 34°40' E 135°12'0 0.0
2017-Oct-24 16:58N 34°40' E 135°12'0 0.1
2017-Oct-24 16:28N 34°40' E 135°12'0 0.0
2017-Oct-24 15:58N 34°40' E 135°12'0 0.0
2017-Oct-24 15:28N 34°40' E 135°12'0 0.0
2017-Oct-24 14:58N 34°40' E 135°12'0 0.0
2017-Oct-24 14:28N 34°40' E 135°12'0 0.0
2017-Oct-24 13:58N 34°40' E 135°12'0 0.0
2017-Oct-24 13:28N 34°40' E 135°12'0 0.0
2017-Oct-24 12:58N 34°40' E 135°12'0 0.0
2017-Oct-24 12:28N 34°40' E 135°12'0 0.0
2017-Oct-24 11:58N 34°40' E 135°12'0 0.0
2017-Oct-24 11:28N 34°40' E 135°12'0 0.1
2017-Oct-24 11:00N 34°40' E 135°12'2 4.7
2017-Oct-24 10:30N 34°38' E 135°10'3 5.5
2017-Oct-24 10:00N 34°36' E 135°07'3 6.0
2017-Oct-24 09:30N 34°35' E 135°04'  
Track history (hours):
 
Tides and Currents Weather Stations Pressure Air Temp Water Temp Dewpoint Dewpoint Depression Visibility Wind Speed Wind Dir Waves Ship Positions

Akogare (Japan)

Ship's website: http://www.akogare.or.jp/eng/top.html

Last reported at 2017-Oct-30 05:57 UTC. Time now 2017-Nov-18 19:54 UTC.
Position N 34°37' E 134°57'.
Warning: this ship's position is 19 days out of date.

Length 52 m; draft 4.5 m.

Type: Sailing vessel. MMSI: 431005001.

Date/timePositionNaut miles runAvg speedWind from/ knotsBaromVisibWave heightAir tempDewpointWater temp
2017-Oct-30 05:57N 34°37' E 134°57'3 5.3
2017-Oct-30 05:26N 34°38' E 135°00'2 4.3
2017-Oct-30 05:00N 34°37' E 135°02'2 3.4
2017-Oct-30 04:30N 34°36' E 135°04'1 2.5
2017-Oct-30 04:00N 34°36' E 135°05'2 4.1
2017-Oct-30 03:30N 34°36' E 135°08'2 3.7
2017-Oct-30 03:00N 34°36' E 135°10'2 4.7
2017-Oct-30 02:30N 34°36' E 135°13'3 5.6
2017-Oct-30 02:00N 34°36' E 135°16'3 5.6
2017-Oct-30 01:30N 34°37' E 135°20'3 6.6
2017-Oct-30 01:00N 34°38' E 135°23'2 2.1
2017-Oct-29 23:54N 34°39' E 135°26'0 0.0
2017-Oct-29 23:30N 34°39' E 135°26'0 0.0
2017-Oct-29 22:54N 34°39' E 135°26'0 0.0
2017-Oct-29 22:30N 34°39' E 135°26'0 0.0
2017-Oct-29 22:00N 34°39' E 135°26'0 0.0
2017-Oct-29 20:48N 34°39' E 135°26'0 0.0
2017-Oct-29 20:30N 34°39' E 135°26'0 0.0
2017-Oct-29 20:00N 34°39' E 135°26'0 0.0
2017-Oct-29 19:30N 34°39' E 135°26'0 0.0
2017-Oct-29 18:48N 34°39' E 135°26'0 0.0
2017-Oct-29 18:24N 34°39' E 135°26'0 0.0
2017-Oct-29 18:00N 34°39' E 135°26'0 0.0
2017-Oct-29 17:30N 34°39' E 135°26'0 0.0
2017-Oct-29 17:00N 34°39' E 135°26'0 0.0
2017-Oct-29 16:30N 34°39' E 135°26'0 0.0
2017-Oct-29 16:00N 34°39' E 135°26'0 0.0
2017-Oct-29 15:18N 34°39' E 135°26'0 0.0
2017-Oct-29 15:00N 34°39' E 135°26'0 0.0
2017-Oct-29 14:30N 34°39' E 135°26'0 0.0
2017-Oct-29 13:54N 34°39' E 135°26'0 0.0
2017-Oct-29 13:30N 34°39' E 135°26'0 0.0
2017-Oct-29 13:00N 34°39' E 135°26'0 0.0
2017-Oct-29 12:12N 34°39' E 135°26'0 0.0
2017-Oct-29 11:48N 34°39' E 135°26'0 0.0
2017-Oct-29 11:30N 34°39' E 135°26'0 0.0
2017-Oct-29 11:00N 34°39' E 135°26'0 0.0
2017-Oct-29 10:24N 34°39' E 135°26'0 0.0
2017-Oct-29 10:00N 34°39' E 135°26'0 0.0
2017-Oct-29 09:18N 34°39' E 135°26'0 0.0
2017-Oct-29 08:36N 34°39' E 135°26'0 0.0
2017-Oct-29 08:30N 34°39' E 135°26'0 0.0
2017-Oct-29 08:00N 34°39' E 135°26'0 0.0
2017-Oct-29 07:30N 34°39' E 135°26'0 0.0
2017-Oct-29 07:00N 34°39' E 135°26'0 0.0
2017-Oct-29 06:30N 34°39' E 135°26'0 0.0
2017-Oct-29 06:00N 34°39' E 135°26'0 0.0
2017-Oct-29 05:30N 34°39' E 135°26'0 0.0
2017-Oct-29 05:00N 34°39' E 135°26'0 0.0
2017-Oct-29 04:24N 34°39' E 135°26'0 0.0
2017-Oct-28 19:00N 34°39' E 135°26'0 0.0
2017-Oct-28 18:24N 34°39' E 135°26'0 0.0
2017-Oct-28 18:00N 34°39' E 135°26'0 0.0
2017-Oct-28 17:30N 34°39' E 135°26'0 0.0
2017-Oct-28 17:00N 34°39' E 135°26'0 0.0
2017-Oct-28 16:30N 34°39' E 135°26'0 0.0
2017-Oct-28 16:00N 34°39' E 135°26'0 0.0
2017-Oct-28 15:30N 34°39' E 135°26'0 0.0
2017-Oct-28 15:00N 34°39' E 135°26'0 0.0
2017-Oct-28 14:30N 34°39' E 135°26'0 0.0
2017-Oct-28 14:00N 34°39' E 135°26'0 0.0
2017-Oct-28 13:24N 34°39' E 135°26'0 0.0
2017-Oct-28 13:00N 34°39' E 135°26'0 0.0
2017-Oct-28 12:30N 34°39' E 135°26'0 0.0
2017-Oct-28 12:00N 34°39' E 135°26'0 0.0
2017-Oct-28 11:00N 34°39' E 135°26'0 0.0
2017-Oct-28 10:30N 34°39' E 135°26'0 0.0
2017-Oct-28 10:00N 34°39' E 135°26'0 0.0
2017-Oct-28 09:30N 34°39' E 135°26'0 0.0
2017-Oct-28 09:00N 34°39' E 135°26'0 0.0
2017-Oct-28 08:30N 34°39' E 135°26'0 0.0
2017-Oct-28 07:48N 34°39' E 135°26'0 0.0
2017-Oct-28 07:18N 34°39' E 135°26'0 0.0
2017-Oct-28 06:54N 34°39' E 135°26'0 0.0
2017-Oct-28 06:18N 34°39' E 135°26'0 0.0
2017-Oct-28 05:54N 34°39' E 135°26'0 0.0
2017-Oct-28 05:30N 34°39' E 135°26'0 0.0
2017-Oct-28 04:18N 34°39' E 135°26'0 0.0
2017-Oct-28 03:54N 34°39' E 135°26'0 0.0
2017-Oct-28 03:18N 34°39' E 135°26'0 0.0
2017-Oct-28 02:42N 34°39' E 135°26'0 0.0
2017-Oct-28 01:18N 34°39' E 135°26'0 0.0
2017-Oct-28 00:59N 34°39' E 135°26'1 2.1
2017-Oct-28 00:30N 34°39' E 135°27'1 2.2
2017-Oct-28 00:00N 34°40' E 135°26'0 0.2
2017-Oct-27 22:42N 34°39' E 135°26'0 0.0
2017-Oct-27 22:30N 34°39' E 135°26'0 0.0
2017-Oct-27 22:00N 34°39' E 135°26'0 0.0
2017-Oct-27 21:30N 34°39' E 135°26'0 0.0
2017-Oct-27 21:00N 34°39' E 135°26'0 0.0
2017-Oct-27 20:24N 34°39' E 135°26'0 0.0
2017-Oct-27 19:54N 34°39' E 135°26'0 0.0
2017-Oct-27 19:30N 34°39' E 135°26'0 0.0
2017-Oct-27 19:00N 34°39' E 135°26'0 0.0
2017-Oct-27 18:30N 34°39' E 135°26'0 0.0
2017-Oct-27 18:00N 34°39' E 135°26'0 0.0
2017-Oct-27 17:30N 34°39' E 135°26'0 0.0
2017-Oct-27 17:00N 34°39' E 135°26'0 0.0
2017-Oct-27 16:24N 34°39' E 135°26'0 0.0
2017-Oct-27 14:54N 34°39' E 135°26'0 0.0
2017-Oct-27 14:30N 34°39' E 135°26'0 0.0
2017-Oct-27 13:54N 34°39' E 135°26'0 0.0
2017-Oct-27 13:12N 34°39' E 135°26'0 0.0
2017-Oct-27 13:00N 34°39' E 135°26'0 0.0
2017-Oct-27 12:30N 34°39' E 135°26'0 0.0
2017-Oct-27 11:58N 34°39' E 135°26'1 2.1
2017-Oct-27 11:31N 34°39' E 135°27'1 1.5
2017-Oct-27 11:01N 34°39' E 135°26'1 1.6
2017-Oct-27 10:30N 34°40' E 135°26'0 0.3
2017-Oct-27 09:48N 34°39' E 135°26'0 0.0
2017-Oct-27 09:18N 34°39' E 135°26'0 0.0
2017-Oct-27 08:54N 34°39' E 135°26'0 0.0
2017-Oct-27 08:30N 34°39' E 135°26'0 0.0
2017-Oct-27 07:54N 34°39' E 135°26'0 0.0
2017-Oct-27 07:30N 34°39' E 135°26'0 0.0
2017-Oct-27 07:00N 34°39' E 135°26'0 0.0
2017-Oct-27 06:30N 34°39' E 135°26'1 1.1
2017-Oct-27 06:00N 34°39' E 135°26'1 1.4
2017-Oct-27 05:30N 34°39' E 135°26'0 0.2
2017-Oct-27 04:48N 34°39' E 135°26'0 0.0
2017-Oct-27 04:24N 34°39' E 135°26'0 0.0
2017-Oct-27 03:54N 34°39' E 135°26'0 0.0
2017-Oct-27 03:30N 34°39' E 135°26'0 0.0
2017-Oct-27 03:00N 34°39' E 135°26'0 0.0
2017-Oct-27 02:30N 34°39' E 135°26'0 0.0
2017-Oct-27 01:54N 34°39' E 135°26'0 0.0
2017-Oct-27 00:12N 34°39' E 135°26'0 0.0
2017-Oct-26 23:48N 34°39' E 135°26'0 0.0
2017-Oct-26 23:30N 34°39' E 135°26'0 0.0
2017-Oct-26 22:54N 34°39' E 135°26'0 0.0
2017-Oct-26 22:30N 34°39' E 135°26'0 0.0
2017-Oct-26 21:54N 34°39' E 135°26'0 0.0
2017-Oct-26 21:30N 34°39' E 135°26'0 0.0
2017-Oct-26 20:54N 34°39' E 135°26'0 0.0
2017-Oct-26 20:30N 34°39' E 135°26'0 0.0
2017-Oct-26 20:00N 34°39' E 135°26'0 0.0
2017-Oct-26 19:30N 34°39' E 135°26'0 0.0
2017-Oct-26 18:54N 34°39' E 135°26'0 0.0
2017-Oct-26 18:30N 34°39' E 135°26'0 0.0
2017-Oct-26 18:00N 34°39' E 135°26'0 0.0
2017-Oct-26 17:30N 34°39' E 135°26'0 0.0
2017-Oct-26 17:00N 34°39' E 135°26'0 0.0
2017-Oct-26 16:30N 34°39' E 135°26'0 0.0
2017-Oct-26 16:00N 34°39' E 135°26'0 0.0
2017-Oct-26 15:30N 34°39' E 135°26'0 0.0
2017-Oct-26 15:00N 34°39' E 135°26'0 0.0
2017-Oct-26 14:30N 34°39' E 135°26'0 0.0
2017-Oct-26 14:00N 34°39' E 135°26'0 0.0
2017-Oct-26 13:30N 34°39' E 135°26'0 0.0
2017-Oct-26 12:30N 34°39' E 135°26'0 0.0
2017-Oct-26 12:00N 34°39' E 135°26'0 0.0
2017-Oct-26 11:24N 34°39' E 135°26'0 0.0
2017-Oct-26 11:00N 34°39' E 135°26'0 0.0
2017-Oct-26 10:30N 34°39' E 135°26'0 0.0
2017-Oct-26 10:00N 34°39' E 135°26'0 0.0
2017-Oct-26 09:30N 34°39' E 135°26'0 0.0
2017-Oct-26 09:00N 34°39' E 135°26'0 0.0
2017-Oct-26 08:30N 34°39' E 135°26'0 0.0
2017-Oct-26 08:00N 34°39' E 135°26'0 0.0
2017-Oct-26 07:30N 34°39' E 135°26'0 0.0
2017-Oct-26 06:54N 34°39' E 135°26'0 0.0
2017-Oct-26 06:24N 34°39' E 135°26'0 0.0
2017-Oct-26 06:00N 34°39' E 135°26'0 0.0
2017-Oct-26 05:24N 34°39' E 135°26'0 0.0
2017-Oct-26 05:00N 34°39' E 135°26'0 0.0
2017-Oct-26 04:30N 34°39' E 135°26'0 0.0
2017-Oct-26 03:36N 34°39' E 135°26'0 0.0
2017-Oct-26 03:27N 34°39' E 135°26'1 2.5
2017-Oct-26 03:00N 34°39' E 135°25'2 4.0
2017-Oct-26 02:30N 34°37' E 135°23'3 5.1
2017-Oct-26 01:59N 34°35' E 135°21'1 1.8
2017-Oct-26 01:30N 34°35' E 135°20'1 1.9
2017-Oct-26 01:00N 34°36' E 135°21'3 6.3
2017-Oct-26 00:30N 34°38' E 135°23'3 5.2
2017-Oct-26 00:00N 34°39' E 135°26'0 0.2
2017-Oct-25 23:26N 34°39' E 135°26'0 0.0
2017-Oct-25 21:50N 34°39' E 135°26'0 0.0
2017-Oct-25 21:08N 34°39' E 135°26'0 0.0
2017-Oct-25 19:44N 34°39' E 135°26'0 0.0
2017-Oct-25 19:26N 34°39' E 135°26'0 0.0
2017-Oct-25 18:50N 34°39' E 135°26'0 0.0
2017-Oct-25 18:14N 34°39' E 135°26'0 0.0
2017-Oct-25 17:56N 34°39' E 135°26'0 0.0
2017-Oct-25 17:26N 34°39' E 135°26'0 0.0
2017-Oct-25 16:56N 34°39' E 135°26'0 0.0
2017-Oct-25 16:26N 34°39' E 135°26'0 0.0
2017-Oct-25 15:56N 34°39' E 135°26'0 0.0
2017-Oct-25 15:26N 34°39' E 135°26'0 0.0
2017-Oct-25 14:56N 34°39' E 135°26'0 0.0
2017-Oct-25 14:26N 34°39' E 135°26'0 0.0
2017-Oct-25 13:56N 34°39' E 135°26'0 0.0
2017-Oct-25 13:26N 34°39' E 135°26'0 0.0
2017-Oct-25 12:56N 34°39' E 135°26'0 0.0
2017-Oct-25 12:14N 34°39' E 135°26'0 0.0
2017-Oct-25 11:56N 34°39' E 135°26'0 0.0
2017-Oct-25 11:26N 34°39' E 135°26'0 0.0
2017-Oct-25 10:32N 34°39' E 135°26'0 0.0
2017-Oct-25 10:26N 34°39' E 135°26'0 0.0
2017-Oct-25 09:44N 34°39' E 135°26'0 0.0
2017-Oct-25 05:26N 34°39' E 135°26'0 1.0
2017-Oct-25 05:00N 34°39' E 135°25'2 4.5
2017-Oct-25 04:29N 34°38' E 135°23'3 5.2
2017-Oct-25 04:00N 34°38' E 135°20'2 4.7
2017-Oct-25 03:30N 34°37' E 135°17'3 5.7
2017-Oct-25 03:00N 34°37' E 135°13'2 4.6
2017-Oct-25 02:30N 34°39' E 135°11'1 1.7
2017-Oct-25 01:52N 34°40' E 135°12'0 0.0
2017-Oct-25 01:28N 34°40' E 135°12'0 0.1
2017-Oct-25 00:58N 34°40' E 135°12'0 0.0
2017-Oct-25 00:28N 34°40' E 135°12'0 0.0
2017-Oct-24 23:52N 34°40' E 135°12'0 0.1
2017-Oct-24 23:22N 34°40' E 135°12'0 0.0
2017-Oct-24 22:58N 34°40' E 135°12'0 0.1
2017-Oct-24 22:28N 34°40' E 135°12'0 0.0
2017-Oct-24 21:58N 34°40' E 135°12'0 0.1
2017-Oct-24 21:28N 34°40' E 135°12'0 0.1
2017-Oct-24 20:52N 34°40' E 135°12'0 0.1
2017-Oct-24 20:22N 34°40' E 135°12'0 0.0
2017-Oct-24 19:52N 34°40' E 135°12'0 0.1
2017-Oct-24 19:28N 34°40' E 135°12'0 0.0
2017-Oct-24 18:52N 34°40' E 135°12'0 0.0
2017-Oct-24 18:28N 34°40' E 135°12'0 0.0
2017-Oct-24 17:58N 34°40' E 135°12'0 0.0
2017-Oct-24 17:28N 34°40' E 135°12'0 0.0
2017-Oct-24 16:58N 34°40' E 135°12'0 0.1
2017-Oct-24 16:28N 34°40' E 135°12'0 0.0
2017-Oct-24 15:58N 34°40' E 135°12'0 0.0
2017-Oct-24 15:28N 34°40' E 135°12'0 0.0
2017-Oct-24 14:58N 34°40' E 135°12'0 0.0
2017-Oct-24 14:28N 34°40' E 135°12'0 0.0
2017-Oct-24 13:58N 34°40' E 135°12'0 0.0
2017-Oct-24 13:28N 34°40' E 135°12'0 0.0
2017-Oct-24 12:58N 34°40' E 135°12'0 0.0
2017-Oct-24 12:28N 34°40' E 135°12'0 0.0
2017-Oct-24 11:58N 34°40' E 135°12'0 0.0
2017-Oct-24 11:28N 34°40' E 135°12'0 0.1
2017-Oct-24 11:00N 34°40' E 135°12'2 4.7
2017-Oct-24 10:30N 34°38' E 135°10'3 5.5
2017-Oct-24 10:00N 34°36' E 135°07'3 6.0
2017-Oct-24 09:30N 34°35' E 135°04'  

Dump ship's entire track history